Terminal Aerodrome Forecast
Issued by NWS

Home | Current Version | Previous Version | Text Only | Print | Product List | Glossary On
Versions: 1 2 3 4 5 6 7 8 9 10 11 12 13 14 15 16 17 18 19 20 21 22 23
000
FTUS43 KAPX 310545
TAFPLN
TAF
KPLN 310545Z 3106/0106 17003KT P6SM -SN OVC025
      TEMPO 3107/3111 2SM -SN OVC018
     FM311100 20004KT P6SM OVC018
     FM311900 26006KT P6SM OVC022
     FM312100 31008KT P6SM OVC025
     FM010500 32007KT P6SM BKN150=

USA.gov is the U.S. government's official web portal to all federal, state and local government web resources and services.